createdAt,value
2018-02-09T00:02:04.203Z,28.00
2018-02-09T00:04:32.447Z,21.77
2018-02-09T00:06:59.933Z,21.50
2018-02-09T00:09:27.401Z,20.12
2018-02-09T00:11:54.870Z,20.48
2018-02-09T00:14:22.334Z,20.77
2018-02-09T00:16:49.809Z,25.75
2018-02-09T00:19:17.278Z,21.50
2018-02-09T00:21:44.752Z,26.48
2018-02-09T00:24:12.230Z,25.58
2018-02-09T00:26:39.688Z,21.52
2018-02-09T00:29:07.154Z,21.85
2018-02-09T00:31:35.383Z,20.52
2018-02-09T00:34:02.866Z,22.70
2018-02-09T00:36:30.317Z,20.95
2018-02-09T00:38:57.794Z,20.25
2018-02-09T00:41:25.246Z,16.58
2018-02-09T00:43:52.711Z,17.77
2018-02-09T00:46:20.189Z,23.83
2018-02-09T00:48:48.466Z,25.02
2018-02-09T00:51:16.692Z,19.20
2018-02-09T00:53:44.166Z,17.35
2018-02-09T00:56:11.631Z,21.70
2018-02-09T00:58:39.106Z,17.30
2018-02-09T01:01:07.343Z,20.40
2018-02-09T01:03:34.831Z,24.40
2018-02-09T01:06:02.304Z,20.02
2018-02-09T01:08:29.778Z,18.12
2018-02-09T01:10:57.269Z,22.65
2018-02-09T01:13:24.757Z,22.98
2018-02-09T01:15:52.228Z,21.15
2018-02-09T01:18:19.709Z,27.10
2018-02-09T01:20:47.174Z,22.20
2018-02-09T01:23:14.650Z,18.20
2018-02-09T01:25:42.136Z,25.45
2018-02-09T01:28:09.598Z,20.55
2018-02-09T01:30:37.084Z,21.55
2018-02-09T01:33:04.549Z,18.30
2018-02-09T01:35:32.788Z,19.83
2018-02-09T01:38:00.263Z,22.15
2018-02-09T01:40:27.733Z,26.27
2018-02-09T01:42:55.969Z,28.20
2018-02-09T01:45:23.438Z,22.58
2018-02-09T01:47:50.894Z,22.48
2018-02-09T01:50:18.370Z,23.00
2018-02-09T01:52:45.836Z,22.67
2018-02-09T01:55:13.311Z,19.52
2018-02-09T01:57:41.543Z,23.52
2018-02-09T02:00:09.106Z,19.12
2018-02-09T02:02:36.646Z,21.45
2018-02-09T02:05:04.361Z,18.25
2018-02-09T02:07:31.804Z,19.48
2018-02-09T02:09:59.275Z,19.48
2018-02-09T02:12:27.494Z,20.75
2018-02-09T02:14:54.956Z,17.20
2018-02-09T02:17:22.430Z,22.37
2018-02-09T02:19:49.910Z,21.92
2018-02-09T02:22:17.362Z,18.67
2018-02-09T02:24:44.829Z,22.60
2018-02-09T02:27:12.298Z,24.37
2018-02-09T02:29:40.524Z,20.60
2018-02-09T02:32:07.998Z,19.73
2018-02-09T02:34:35.453Z,23.83
2018-02-09T02:37:02.920Z,15.98
2018-02-09T02:39:30.376Z,18.33
2018-02-09T02:41:57.863Z,21.37
2018-02-09T02:44:26.085Z,17.10
2018-02-09T02:46:53.570Z,15.80
2018-02-09T02:49:21.030Z,18.15
2018-02-09T02:51:48.563Z,21.30
2018-02-09T02:54:16.100Z,21.45
2018-02-09T02:56:43.543Z,20.83
2018-02-09T02:59:11.769Z,20.23
2018-02-09T03:01:39.250Z,22.25
2018-02-09T03:04:06.714Z,19.80
2018-02-09T03:06:34.203Z,18.67
2018-02-09T03:09:01.664Z,17.37
2018-02-09T03:11:29.141Z,16.33
2018-02-09T03:13:56.602Z,18.20
2018-02-09T03:16:24.078Z,19.33
2018-02-09T03:18:51.559Z,20.83
2018-02-09T03:21:19.042Z,20.80
2018-02-09T03:23:47.263Z,21.67
2018-02-09T03:26:14.735Z,21.12
2018-02-09T03:28:42.208Z,21.30
2018-02-09T03:31:09.684Z,18.23
2018-02-09T03:33:37.920Z,24.05
2018-02-09T03:36:05.373Z,18.30
2018-02-09T03:38:32.874Z,18.12
2018-02-09T03:41:01.107Z,19.30
2018-02-09T03:43:28.593Z,19.23
2018-02-09T03:45:56.070Z,20.60
2018-02-09T03:48:23.539Z,15.52
2018-02-09T03:50:51.005Z,19.80
2018-02-09T03:53:18.475Z,20.58
2018-02-09T03:55:45.951Z,22.05
2018-02-09T03:58:13.424Z,17.70
2018-02-09T04:00:40.900Z,20.90
2018-02-09T04:03:08.361Z,24.20
2018-02-09T04:05:36.618Z,18.87
2018-02-09T04:08:04.098Z,20.92
2018-02-09T04:10:31.567Z,18.98
2018-02-09T04:12:59.815Z,22.70
2018-02-09T04:15:27.274Z,16.40
2018-02-09T04:17:54.759Z,24.45
2018-02-09T04:20:22.222Z,21.15
2018-02-09T04:22:50.460Z,20.20
2018-02-09T04:25:17.940Z,20.52
2018-02-09T04:27:45.522Z,21.10
2018-02-09T04:30:13.002Z,23.77
2018-02-09T04:32:40.482Z,24.87
2018-02-09T04:35:07.967Z,23.48
2018-02-09T04:37:35.430Z,20.25
2018-02-09T04:40:02.915Z,24.87
2018-02-09T04:42:31.144Z,25.92
2018-02-09T04:44:58.617Z,21.02
2018-02-09T04:47:26.081Z,22.35
2018-02-09T04:49:53.558Z,21.02
2018-02-09T04:52:21.792Z,22.05
2018-02-09T04:54:49.254Z,20.75
2018-02-09T04:57:16.731Z,21.85
2018-02-09T04:59:44.203Z,18.48
2018-02-09T05:02:12.466Z,25.75
2018-02-09T05:04:39.942Z,23.17
2018-02-09T05:07:08.175Z,28.05
2018-02-09T05:09:35.648Z,23.05
2018-02-09T05:12:03.119Z,22.95
2018-02-09T05:14:30.604Z,22.45
2018-02-09T05:16:58.059Z,28.70
2018-02-09T05:19:25.534Z,22.98
2018-02-09T05:21:53.009Z,25.33
2018-02-09T05:24:20.482Z,26.45
2018-02-09T05:26:47.954Z,16.87
2018-02-09T05:29:15.439Z,21.08
2018-02-09T05:31:43.663Z,19.30
2018-02-09T05:34:11.132Z,18.00
2018-02-09T05:36:38.612Z,20.23
2018-02-09T05:39:06.056Z,15.20
2018-02-09T05:41:33.532Z,19.05
2018-02-09T05:44:01.001Z,14.70
2018-02-09T05:46:29.225Z,19.50
2018-02-09T05:48:56.696Z,19.85
2018-02-09T05:51:24.167Z,20.45
2018-02-09T05:53:51.637Z,16.45
2018-02-09T05:56:19.107Z,25.45
2018-02-09T05:58:47.327Z,18.45
2018-02-09T06:01:14.788Z,18.17
2018-02-09T06:03:42.247Z,15.95
2018-02-09T06:06:10.492Z,17.42
2018-02-09T06:08:37.957Z,17.75
2018-02-09T06:11:05.414Z,19.98
2018-02-09T06:13:32.881Z,18.42
2018-02-09T06:16:00.349Z,17.85
2018-02-09T06:18:27.816Z,16.95
2018-02-09T06:20:55.306Z,19.15
2018-02-09T06:23:22.766Z,19.33
2018-02-09T06:25:50.249Z,19.08
2018-02-09T06:28:18.480Z,19.52
2018-02-09T06:30:45.962Z,25.40
2018-02-09T06:39:06.716Z,22.10
2018-02-09T06:41:34.956Z,20.23
2018-02-09T06:44:02.446Z,22.13
2018-02-09T06:46:30.717Z,21.65
2018-02-09T06:48:58.184Z,21.08
2018-02-09T06:51:26.408Z,16.10
2018-02-09T06:53:53.882Z,23.33
2018-02-09T06:56:21.367Z,21.75
2018-02-09T06:58:48.827Z,22.70
2018-02-09T07:01:16.298Z,17.40
2018-02-09T07:03:44.549Z,26.05
2018-02-09T07:06:12.012Z,23.90
2018-02-09T07:08:39.492Z,15.93
2018-02-09T07:11:07.717Z,18.92
2018-02-09T07:13:35.186Z,21.65
2018-02-09T07:16:02.667Z,19.10
2018-02-09T07:18:30.151Z,17.15
2018-02-09T07:20:57.636Z,16.83
2018-02-09T07:23:25.092Z,21.27
2018-02-09T07:25:52.572Z,19.33
2018-02-09T07:28:20.030Z,20.52
2018-02-09T07:30:47.524Z,19.73
2018-02-09T07:33:15.818Z,17.65
2018-02-09T07:35:43.293Z,19.37
2018-02-09T07:38:10.758Z,22.02
2018-02-09T07:40:38.251Z,23.30
2018-02-09T07:43:05.713Z,20.60
2018-02-09T07:45:33.181Z,23.83
2018-02-09T07:48:00.666Z,23.45
2018-02-09T07:50:28.137Z,23.98
2018-02-09T07:52:55.622Z,21.20
2018-02-09T07:55:23.085Z,19.92
2018-02-09T07:57:50.566Z,21.73
2018-02-09T08:00:18.138Z,17.27
2018-02-09T08:02:45.637Z,16.42
2018-02-09T08:05:13.108Z,17.87
2018-02-09T08:07:40.608Z,23.35
2018-02-09T08:10:08.090Z,26.67
2018-02-09T08:12:36.313Z,17.83
2018-02-09T08:15:03.781Z,20.37
2018-02-09T08:17:31.253Z,18.02
2018-02-09T08:19:58.717Z,11.48
2018-02-09T08:22:26.190Z,17.58
2018-02-09T08:24:53.653Z,17.10
2018-02-09T08:27:21.882Z,15.60
2018-02-09T08:29:49.414Z,16.30
2018-02-09T08:32:16.893Z,16.12
2018-02-09T08:34:44.369Z,20.50
2018-02-09T08:37:11.838Z,15.40
2018-02-09T08:39:39.297Z,15.93
2018-02-09T08:42:07.008Z,16.85
2018-02-09T08:44:34.477Z,16.05
2018-02-09T08:47:01.979Z,16.65
2018-02-09T08:49:29.457Z,18.75
2018-02-09T08:51:57.690Z,22.02
2018-02-09T08:54:25.206Z,21.02
2018-02-09T08:56:52.669Z,28.08
2018-02-09T08:59:20.177Z,23.42
2018-02-09T09:01:47.612Z,28.90
2018-02-09T09:04:15.074Z,27.58
2018-02-09T09:06:42.641Z,22.13
2018-02-09T09:09:10.128Z,27.10
2018-02-09T09:11:38.345Z,26.10
2018-02-09T09:14:05.805Z,36.47
2018-02-09T09:16:33.292Z,26.45
2018-02-09T09:19:00.777Z,28.58
2018-02-09T09:21:28.232Z,42.83
2018-02-09T09:23:55.713Z,39.33
2018-02-09T09:26:23.962Z,40.33
2018-02-09T09:28:51.446Z,41.33
2018-02-09T09:31:18.897Z,43.25
2018-02-09T09:33:47.134Z,38.60
2018-02-09T09:36:14.606Z,42.72
2018-02-09T09:38:42.083Z,44.15
2018-02-09T09:41:10.314Z,40.08
2018-02-09T09:43:37.783Z,42.92
2018-02-09T09:46:05.264Z,46.25
2018-02-09T09:48:32.731Z,42.97
2018-02-09T09:51:00.972Z,45.20
2018-02-09T09:53:28.434Z,41.47
2018-02-09T09:55:55.901Z,48.17
2018-02-09T09:58:23.373Z,46.92
2018-02-09T10:00:51.621Z,45.55
2018-02-09T10:03:19.096Z,45.35
2018-02-09T10:05:46.565Z,43.25
2018-02-09T10:08:14.818Z,43.38
2018-02-09T10:10:42.292Z,46.30
2018-02-09T10:13:09.781Z,47.70
2018-02-09T10:15:37.261Z,58.10
2018-02-09T10:18:04.729Z,43.40
2018-02-09T10:20:32.215Z,43.90
2018-02-09T10:22:59.698Z,52.15
2018-02-09T10:25:27.939Z,53.17
2018-02-09T10:27:55.428Z,44.90
2018-02-09T10:30:22.899Z,39.17
2018-02-09T10:32:51.138Z,49.92
2018-02-09T10:35:18.600Z,43.40
2018-02-09T10:37:46.099Z,50.80
2018-02-09T10:40:13.579Z,44.33
2018-02-09T10:42:41.056Z,57.30
2018-02-09T10:45:08.526Z,55.10
2018-02-09T10:47:36.002Z,53.72
2018-02-09T10:50:03.473Z,55.58
2018-02-09T10:52:30.969Z,60.40
2018-02-09T10:54:58.432Z,49.05
2018-02-09T10:57:25.889Z,51.00
2018-02-09T10:59:53.354Z,55.20
2018-02-09T11:02:20.836Z,54.58
2018-02-09T11:04:48.327Z,45.47
2018-02-09T11:07:16.572Z,44.90
2018-02-09T11:09:46.834Z,54.15
2018-02-09T11:12:15.103Z,51.72
2018-02-09T11:14:42.548Z,56.85
2018-02-09T11:17:10.005Z,46.70
2018-02-09T11:19:37.470Z,53.72
2018-02-09T11:22:05.696Z,48.22
2018-02-09T11:24:33.172Z,49.83
2018-02-09T11:27:00.642Z,52.60
2018-02-09T11:29:28.116Z,50.88
2018-02-09T11:31:56.342Z,53.45
2018-02-09T11:34:23.831Z,47.10
2018-02-09T11:36:51.306Z,49.70
2018-02-09T11:39:18.776Z,54.33
2018-02-09T11:41:47.000Z,44.33
2018-02-09T11:44:15.243Z,46.90
2018-02-09T11:46:42.718Z,50.78
2018-02-09T11:49:10.185Z,47.60
2018-02-09T11:51:37.646Z,56.63
2018-02-09T11:54:05.127Z,58.22
2018-02-09T11:56:32.585Z,54.40
2018-02-09T11:59:00.060Z,54.13
2018-02-09T12:01:27.515Z,56.85
2018-02-09T12:03:55.043Z,49.47
2018-02-09T12:06:23.239Z,51.20
2018-02-09T12:08:50.724Z,48.95
2018-02-09T12:11:18.949Z,48.20
2018-02-09T12:13:46.413Z,59.15
2018-02-09T12:16:13.890Z,53.70
2018-02-09T12:18:41.369Z,52.30
2018-02-09T12:21:08.831Z,57.95
2018-02-09T12:23:37.066Z,55.95
2018-02-09T12:26:04.537Z,52.95
2018-02-09T12:28:32.044Z,54.72
2018-02-09T12:30:59.522Z,54.28
2018-02-09T12:33:26.985Z,45.10
2018-02-09T12:35:54.455Z,52.45
2018-02-09T12:38:21.910Z,47.62
2018-02-09T12:40:49.393Z,51.33
2018-02-09T12:43:16.927Z,52.47
2018-02-09T12:45:45.109Z,49.60
2018-02-09T12:48:12.581Z,47.67
2018-02-09T12:50:40.037Z,49.72
2018-02-09T12:53:07.481Z,57.42
2018-02-09T12:55:34.962Z,42.00
2018-02-09T12:58:02.442Z,51.55
2018-02-09T13:00:30.195Z,52.15
2018-02-09T13:02:58.446Z,50.15
2018-02-09T13:05:25.923Z,39.63
2018-02-09T13:07:53.408Z,41.67
2018-02-09T13:10:21.656Z,41.65
2018-02-09T13:13:00.926Z,39.00
2018-02-09T13:15:28.408Z,37.53
2018-02-09T13:17:55.910Z,46.10
2018-02-09T13:20:23.372Z,50.20
2018-02-09T13:23:02.645Z,56.13
2018-02-09T13:25:30.109Z,52.95
2018-02-09T13:27:57.585Z,46.37
2018-02-09T13:30:25.037Z,41.75
2018-02-09T13:33:04.523Z,43.53
2018-02-09T13:35:31.969Z,46.85
2018-02-09T13:37:59.468Z,46.05
2018-02-09T13:40:26.928Z,50.90
2018-02-09T13:42:54.405Z,52.25
2018-02-09T13:45:21.882Z,50.75
2018-02-09T13:47:49.341Z,51.03
2018-02-09T13:50:16.819Z,45.55
2018-02-09T13:52:45.095Z,51.70
2018-02-09T13:55:12.562Z,44.90
2018-02-09T13:57:40.796Z,47.55
2018-02-09T14:00:08.279Z,50.80
2018-02-09T14:02:35.737Z,45.55
2018-02-09T14:05:03.230Z,50.15
2018-02-09T14:07:30.702Z,41.95
2018-02-09T14:09:58.174Z,54.35
2018-02-09T14:12:25.632Z,50.75
2018-02-09T14:14:53.108Z,39.95
2018-02-09T14:17:20.590Z,40.55
2018-02-09T14:19:48.057Z,44.08
2018-02-09T14:22:15.514Z,42.45
2018-02-09T14:24:42.991Z,48.53
2018-02-09T14:27:10.466Z,44.72
2018-02-09T14:29:37.931Z,38.25
2018-02-09T14:32:05.411Z,48.28
2018-02-09T14:34:32.899Z,41.40
2018-02-09T14:37:00.394Z,39.22
2018-02-09T14:39:27.859Z,33.72
2018-02-09T14:41:55.337Z,37.53
2018-02-09T14:44:22.797Z,45.92
2018-02-09T14:47:11.836Z,37.20
2018-02-09T14:49:39.287Z,37.55
2018-02-09T14:52:06.765Z,40.75
2018-02-09T14:54:34.236Z,36.03
2018-02-09T14:57:01.718Z,44.70
2018-02-09T14:59:29.198Z,44.83
2018-02-09T15:01:57.434Z,46.53
2018-02-09T15:04:24.909Z,43.75
2018-02-09T15:06:53.149Z,36.50
2018-02-09T15:09:20.615Z,36.50
2018-02-09T15:11:48.108Z,40.33
2018-02-09T15:14:15.657Z,34.28
2018-02-09T15:16:43.125Z,36.55
2018-02-09T15:22:03.560Z,29.77
2018-02-09T15:24:31.816Z,32.58
2018-02-09T15:26:59.272Z,40.78
2018-02-09T15:29:26.741Z,36.33
2018-02-09T15:31:55.133Z,32.67
2018-02-09T15:34:23.362Z,43.55
2018-02-09T15:36:50.825Z,41.10
2018-02-09T15:39:18.300Z,35.20
2018-02-09T15:41:45.764Z,36.28
2018-02-09T15:44:13.227Z,38.40
2018-02-09T15:46:40.745Z,36.15
2018-02-09T15:49:09.037Z,24.52
2018-02-09T15:51:36.536Z,27.58
2018-02-09T15:54:03.970Z,28.42
2018-02-09T15:56:31.434Z,32.90
2018-02-09T15:58:58.897Z,28.67
2018-02-09T16:01:26.367Z,30.05
2018-02-09T16:03:53.873Z,27.70
2018-02-09T16:06:21.361Z,33.00
2018-02-09T16:08:48.876Z,30.95
2018-02-09T16:11:32.245Z,38.63
2018-02-09T16:13:59.721Z,29.23
2018-02-09T16:16:27.193Z,30.98
2018-02-09T16:18:55.423Z,30.60
2018-02-09T16:21:22.889Z,31.65
2018-02-09T16:23:50.353Z,30.70
2018-02-09T16:26:17.828Z,36.28
2018-02-09T16:28:45.317Z,30.55
2018-02-09T16:31:12.797Z,35.97
2018-02-09T16:33:40.260Z,32.08
2018-02-09T16:36:07.765Z,33.28
2018-02-09T16:38:35.220Z,29.40
2018-02-09T16:41:02.686Z,32.65
2018-02-09T16:43:30.911Z,33.88
2018-02-09T16:45:58.394Z,33.95
2018-02-09T16:48:25.868Z,31.85
2018-02-09T16:50:53.353Z,32.40
2018-02-09T16:53:20.865Z,31.00
2018-02-09T16:55:48.742Z,39.35
2018-02-09T16:58:16.359Z,30.58
2018-02-09T17:00:43.837Z,29.90
2018-02-09T17:03:11.291Z,34.42
2018-02-09T17:05:38.763Z,32.38
2018-02-09T17:08:06.249Z,37.45
2018-02-09T17:10:33.708Z,34.00
2018-02-09T17:13:02.033Z,37.28
2018-02-09T17:15:29.491Z,38.42
2018-02-09T17:17:56.977Z,37.25
2018-02-09T17:20:24.445Z,37.88
2018-02-09T17:22:51.915Z,37.58
2018-02-09T17:25:19.383Z,45.15
2018-02-09T17:27:47.624Z,47.75
2018-02-09T17:30:15.098Z,49.72
2018-02-09T17:32:42.560Z,55.85
2018-02-09T17:35:10.028Z,50.40
2018-02-09T17:37:38.280Z,49.47
2018-02-09T17:40:05.752Z,38.88
2018-02-09T17:42:33.226Z,42.08
2018-02-09T17:45:01.469Z,42.92
2018-02-09T17:47:28.938Z,40.33
2018-02-09T17:49:56.410Z,44.53
2018-02-09T17:52:23.874Z,44.45
2018-02-09T17:54:52.143Z,47.92
2018-02-09T17:57:19.585Z,46.22
2018-02-09T17:59:47.059Z,40.10
2018-02-09T18:02:14.539Z,46.10
2018-02-09T18:04:42.772Z,53.25
2018-02-09T18:07:10.228Z,49.90
2018-02-09T18:09:37.709Z,59.70
2018-02-09T18:12:05.172Z,53.28
2018-02-09T18:14:32.650Z,56.33
2018-02-09T18:17:00.116Z,53.63
2018-02-09T18:19:27.589Z,43.42
2018-02-09T18:21:55.047Z,41.80
2018-02-09T18:24:22.536Z,41.25
2018-02-09T18:26:50.007Z,44.17
2018-02-09T18:29:17.478Z,50.58
2018-02-09T18:31:45.706Z,48.53
2018-02-09T18:34:13.181Z,46.47
2018-02-09T18:36:40.658Z,40.45
2018-02-09T18:39:08.141Z,42.55
2018-02-09T18:41:35.610Z,43.00
2018-02-09T18:44:03.093Z,46.47
2018-02-09T18:46:30.566Z,50.60
2018-02-09T18:48:58.050Z,44.33
2018-02-09T18:51:25.519Z,47.33
2018-02-09T18:53:53.759Z,42.22
2018-02-09T18:56:21.220Z,41.92
2018-02-09T18:58:48.752Z,42.53
2018-02-09T19:01:16.177Z,48.65
2018-02-09T19:03:44.417Z,46.40
2018-02-09T19:06:11.898Z,45.00
2018-02-09T19:08:39.391Z,48.40
2018-02-09T19:11:06.863Z,50.85
2018-02-09T19:13:34.327Z,41.20
2018-02-09T19:16:01.785Z,45.55
2018-02-09T19:18:29.251Z,48.38
2018-02-09T19:20:56.725Z,45.38
2018-02-09T19:23:24.177Z,46.03
2018-02-09T19:25:51.650Z,47.75
2018-02-09T19:28:19.117Z,48.13
2018-02-09T19:30:46.580Z,44.60
2018-02-09T19:33:14.045Z,45.38
2018-02-09T19:35:42.290Z,44.10
2018-02-09T19:38:09.750Z,38.75
2018-02-09T19:40:37.243Z,47.50
2018-02-09T19:43:05.476Z,48.42
2018-02-09T19:45:33.003Z,50.40
2018-02-09T19:48:00.449Z,45.88
2018-02-09T19:50:27.935Z,41.03
2018-02-09T19:52:55.396Z,43.00
2018-02-09T19:55:22.877Z,42.85
2018-02-09T19:57:50.341Z,44.13
2018-02-09T20:00:17.809Z,48.13
2018-02-09T20:02:46.038Z,42.58
2018-02-09T20:05:13.519Z,43.78
2018-02-09T20:07:40.987Z,42.13
2018-02-09T20:10:08.453Z,44.35
2018-02-09T20:12:35.932Z,47.33
2018-02-09T20:15:04.167Z,50.15
2018-02-09T20:17:31.648Z,43.95
2018-02-09T20:19:59.120Z,42.45
2018-02-09T20:22:27.413Z,43.75
2018-02-09T20:24:54.838Z,46.80
2018-02-09T20:27:22.308Z,42.40
2018-02-09T20:29:50.543Z,46.60
2018-02-09T20:32:18.018Z,43.05
2018-02-09T20:34:45.495Z,42.72
2018-02-09T20:37:12.988Z,46.97
2018-02-09T20:39:40.463Z,46.37
2018-02-09T20:42:07.934Z,41.75
2018-02-09T20:44:35.402Z,47.10
2018-02-09T20:47:02.884Z,42.60
2018-02-09T20:49:30.344Z,46.00
2018-02-09T20:51:57.802Z,44.65
2018-02-09T20:54:25.275Z,46.72
2018-02-09T20:56:53.493Z,44.10
2018-02-09T20:59:20.969Z,50.17
2018-02-09T21:01:48.439Z,49.10
2018-02-09T21:04:15.905Z,43.50
2018-02-09T21:06:43.386Z,45.00
2018-02-09T21:09:11.617Z,38.22
2018-02-09T21:11:39.089Z,45.65
2018-02-09T21:14:06.560Z,41.10
2018-02-09T21:16:34.038Z,42.00
2018-02-09T21:19:02.295Z,40.10
2018-02-09T21:21:29.732Z,36.13
2018-02-09T21:23:57.252Z,44.00
2018-02-09T21:26:25.474Z,42.88
2018-02-09T21:28:52.942Z,39.30
2018-02-09T21:31:20.406Z,38.95
2018-02-09T21:33:48.679Z,41.75
2018-02-09T21:36:16.138Z,46.95
2018-02-09T21:38:43.623Z,40.50
2018-02-09T21:41:11.099Z,36.00
2018-02-09T21:43:38.570Z,40.67
2018-02-09T21:46:06.072Z,51.13
2018-02-09T21:48:33.545Z,45.72
2018-02-09T21:51:01.890Z,44.60
2018-02-09T21:53:29.355Z,52.17
2018-02-09T21:55:56.815Z,48.10
2018-02-09T21:58:24.292Z,53.22
2018-02-09T22:00:52.534Z,51.08
2018-02-09T22:03:29.994Z,58.13
2018-02-09T22:05:57.460Z,52.92
2018-02-09T22:08:24.934Z,47.72
2018-02-09T22:10:52.389Z,46.95
2018-02-09T22:13:19.865Z,41.83
2018-02-09T22:15:47.346Z,47.20
2018-02-09T22:18:15.619Z,45.75
2018-02-09T22:20:43.183Z,46.95
2018-02-09T22:23:11.422Z,57.33
2018-02-09T22:25:38.909Z,51.08
2018-02-09T22:28:06.363Z,39.90
2018-02-09T22:30:33.838Z,43.85
2018-02-09T22:33:01.324Z,43.05
2018-02-09T22:35:28.800Z,51.55
2018-02-09T22:37:56.267Z,41.22
2018-02-09T22:40:23.755Z,39.63
2018-02-09T22:42:51.227Z,40.95
2018-02-09T22:45:19.477Z,38.42
2018-02-09T22:47:46.952Z,51.05
2018-02-09T22:50:14.436Z,44.03
2018-02-09T22:52:41.911Z,46.92
2018-02-09T22:55:10.150Z,48.95
2018-02-09T22:57:38.396Z,54.38
2018-02-09T23:00:05.904Z,51.78
2018-02-09T23:02:37.812Z,50.90
2018-02-09T23:05:05.306Z,43.47
2018-02-09T23:07:33.538Z,44.17
2018-02-09T23:10:01.035Z,38.85
2018-02-09T23:12:28.487Z,45.12
2018-02-09T23:14:55.990Z,51.50
2018-02-09T23:17:23.471Z,47.00
2018-02-09T23:19:51.951Z,47.47
2018-02-09T23:22:20.222Z,39.47
2018-02-09T23:24:48.621Z,35.05
2018-02-09T23:27:16.082Z,38.58
2018-02-09T23:29:43.562Z,49.10
2018-02-09T23:32:11.785Z,51.30
2018-02-09T23:34:41.221Z,47.70
2018-02-09T23:37:14.478Z,54.67
2018-02-09T23:39:41.964Z,51.13
2018-02-09T23:42:09.432Z,51.78
2018-02-09T23:44:36.903Z,43.17
2018-02-09T23:47:04.367Z,44.08
2018-02-09T23:49:31.831Z,41.92
2018-02-09T23:52:01.147Z,52.83
2018-02-09T23:54:31.672Z,43.60
2018-02-09T23:56:59.901Z,48.35
2018-02-09T23:59:27.365Z,41.13
